sensor_id;sensor_type;location;lat;lon;timestamp;pressure;altitude;pressure_sealevel;temperature;humidity
72414;BME280;60995;52.154;4.498;2023-06-22T00:00:55;102001.88;;;18.93;83.53
72414;BME280;60995;52.154;4.498;2023-06-22T00:03:12;102007.66;;;18.90;83.67
72414;BME280;60995;52.154;4.498;2023-06-22T00:05:28;102003.91;;;18.91;84.06
72414;BME280;60995;52.154;4.498;2023-06-22T00:07:44;102013.47;;;18.87;84.50
72414;BME280;60995;52.154;4.498;2023-06-22T00:10:01;102003.91;;;18.91;84.63
72414;BME280;60995;52.154;4.498;2023-06-22T00:12:17;102007.75;;;19.07;84.32
72414;BME280;60995;52.154;4.498;2023-06-22T00:14:33;102008.41;;;19.00;84.09
72414;BME280;60995;52.154;4.498;2023-06-22T00:16:50;101996.38;;;18.93;84.01
72414;BME280;60995;52.154;4.498;2023-06-22T00:19:11;102001.09;;;18.83;84.23
72414;BME280;60995;52.154;4.498;2023-06-22T00:21:27;102003.47;;;18.78;84.77
72414;BME280;60995;52.154;4.498;2023-06-22T00:23:44;102000.34;;;18.73;85.25
72414;BME280;60995;52.154;4.498;2023-06-22T00:26:00;101998.31;;;18.75;85.26
72414;BME280;60995;52.154;4.498;2023-06-22T00:28:16;101997.63;;;18.81;85.62
72414;BME280;60995;52.154;4.498;2023-06-22T00:30:33;101993.66;;;18.75;85.88
72414;BME280;60995;52.154;4.498;2023-06-22T00:32:49;102004.44;;;18.68;85.83
72414;BME280;60995;52.154;4.498;2023-06-22T00:35:06;102009.94;;;18.68;86.49
72414;BME280;60995;52.154;4.498;2023-06-22T00:37:23;102004.81;;;18.74;86.48
72414;BME280;60995;52.154;4.498;2023-06-22T00:39:42;102003.13;;;18.81;86.53
72414;BME280;60995;52.154;4.498;2023-06-22T00:41:59;101994.63;;;18.92;86.39
72414;BME280;60995;52.154;4.498;2023-06-22T00:44:15;101998.88;;;18.87;86.10
72414;BME280;60995;52.154;4.498;2023-06-22T00:46:32;101998.81;;;18.78;85.98
72414;BME280;60995;52.154;4.498;2023-06-22T00:48:49;102003.09;;;18.73;86.03
72414;BME280;60995;52.154;4.498;2023-06-22T00:51:07;102003.44;;;18.70;86.48
72414;BME280;60995;52.154;4.498;2023-06-22T00:53:24;101999.13;;;18.93;86.28
72414;BME280;60995;52.154;4.498;2023-06-22T00:55:44;102000.75;;;18.86;86.08
72414;BME280;60995;52.154;4.498;2023-06-22T00:58:07;101990.75;;;18.77;85.77
72414;BME280;60995;52.154;4.498;2023-06-22T01:00:26;101995.59;;;18.83;86.06
72414;BME280;60995;52.154;4.498;2023-06-22T01:02:43;101989.00;;;18.76;85.72
72414;BME280;60995;52.154;4.498;2023-06-22T01:05:01;101992.81;;;18.75;85.80
72414;BME280;60995;52.154;4.498;2023-06-22T01:07:43;101983.19;;;18.79;85.68
72414;BME280;60995;52.154;4.498;2023-06-22T01:10:11;101977.00;;;18.77;85.75
72414;BME280;60995;52.154;4.498;2023-06-22T01:12:37;101973.56;;;18.75;85.79
72414;BME280;60995;52.154;4.498;2023-06-22T01:15:20;101972.69;;;18.74;85.63
72414;BME280;60995;52.154;4.498;2023-06-22T01:17:43;101972.50;;;18.76;85.52
72414;BME280;60995;52.154;4.498;2023-06-22T01:20:02;101978.50;;;18.71;85.52
72414;BME280;60995;52.154;4.498;2023-06-22T01:22:24;101977.00;;;18.77;85.31
72414;BME280;60995;52.154;4.498;2023-06-22T01:24:57;101972.38;;;18.77;84.97
72414;BME280;60995;52.154;4.498;2023-06-22T01:29:58;101982.38;;;18.87;84.82
72414;BME280;60995;52.154;4.498;2023-06-22T01:32:16;101978.13;;;18.92;84.45
72414;BME280;60995;52.154;4.498;2023-06-22T01:34:35;101980.47;;;18.87;84.36
72414;BME280;60995;52.154;4.498;2023-06-22T01:36:56;101978.00;;;18.76;84.50
72414;BME280;60995;52.154;4.498;2023-06-22T01:39:15;101970.06;;;18.64;85.23
72414;BME280;60995;52.154;4.498;2023-06-22T01:41:37;101965.97;;;18.68;85.69
72414;BME280;60995;52.154;4.498;2023-06-22T01:43:55;101968.09;;;18.83;85.53
72414;BME280;60995;52.154;4.498;2023-06-22T01:46:12;101975.63;;;18.81;85.42
72414;BME280;60995;52.154;4.498;2023-06-22T01:48:30;101970.66;;;18.84;84.94
72414;BME280;60995;52.154;4.498;2023-06-22T01:50:48;101962.97;;;18.88;85.17
72414;BME280;60995;52.154;4.498;2023-06-22T01:53:04;101962.94;;;18.80;85.21
72414;BME280;60995;52.154;4.498;2023-06-22T01:55:22;101958.81;;;18.84;85.58
72414;BME280;60995;52.154;4.498;2023-06-22T01:57:39;101962.19;;;18.70;85.73
72414;BME280;60995;52.154;4.498;2023-06-22T02:00:07;101966.81;;;18.69;86.16
72414;BME280;60995;52.154;4.498;2023-06-22T02:02:37;101972.75;;;18.56;86.28
72414;BME280;60995;52.154;4.498;2023-06-22T02:05:05;101976.53;;;18.55;87.05
72414;BME280;60995;52.154;4.498;2023-06-22T02:07:23;101974.88;;;18.71;87.37
72414;BME280;60995;52.154;4.498;2023-06-22T02:09:44;101977.59;;;18.62;87.05
72414;BME280;60995;52.154;4.498;2023-06-22T02:12:04;101970.38;;;18.61;87.15
72414;BME280;60995;52.154;4.498;2023-06-22T02:14:24;101977.94;;;18.59;87.40
72414;BME280;60995;52.154;4.498;2023-06-22T02:16:41;101972.44;;;18.59;87.76
72414;BME280;60995;52.154;4.498;2023-06-22T02:19:01;101968.19;;;18.73;88.17
72414;BME280;60995;52.154;4.498;2023-06-22T02:21:22;101967.34;;;18.73;87.91
72414;BME280;60995;52.154;4.498;2023-06-22T02:23:39;101964.56;;;18.64;87.50
72414;BME280;60995;52.154;4.498;2023-06-22T02:25:55;101968.66;;;18.60;87.91
72414;BME280;60995;52.154;4.498;2023-06-22T02:28:11;101969.88;;;18.58;88.15
72414;BME280;60995;52.154;4.498;2023-06-22T02:30:28;101972.13;;;18.71;88.36
72414;BME280;60995;52.154;4.498;2023-06-22T02:32:44;101963.16;;;18.60;88.19
72414;BME280;60995;52.154;4.498;2023-06-22T02:35:01;101962.84;;;18.63;88.30
72414;BME280;60995;52.154;4.498;2023-06-22T02:37:20;101966.28;;;18.65;88.56
72414;BME280;60995;52.154;4.498;2023-06-22T02:39:36;101964.22;;;18.67;88.45
72414;BME280;60995;52.154;4.498;2023-06-22T02:41:54;101963.03;;;18.70;88.69
72414;BME280;60995;52.154;4.498;2023-06-22T02:44:10;101963.84;;;18.62;88.62
72414;BME280;60995;52.154;4.498;2023-06-22T02:46:26;101960.19;;;18.54;88.76
72414;BME280;60995;52.154;4.498;2023-06-22T02:48:43;101969.72;;;18.67;89.33
72414;BME280;60995;52.154;4.498;2023-06-22T02:50:59;101971.13;;;18.72;89.32
72414;BME280;60995;52.154;4.498;2023-06-22T02:53:15;101959.81;;;18.75;89.16
72414;BME280;60995;52.154;4.498;2023-06-22T02:55:31;101962.69;;;18.73;88.88
72414;BME280;60995;52.154;4.498;2023-06-22T02:57:48;101953.94;;;18.70;88.76
72414;BME280;60995;52.154;4.498;2023-06-22T03:00:09;101958.69;;;18.59;89.10
72414;BME280;60995;52.154;4.498;2023-06-22T03:02:33;101962.13;;;18.61;89.52
72414;BME280;60995;52.154;4.498;2023-06-22T03:04:49;101964.81;;;18.45;89.63
72414;BME280;60995;52.154;4.498;2023-06-22T03:07:06;101962.88;;;18.37;89.94
72414;BME280;60995;52.154;4.498;2023-06-22T03:09:22;101966.78;;;18.34;90.46
72414;BME280;60995;52.154;4.498;2023-06-22T03:11:38;101964.69;;;18.28;90.76
72414;BME280;60995;52.154;4.498;2023-06-22T03:13:54;101971.28;;;18.35;91.07
72414;BME280;60995;52.154;4.498;2023-06-22T03:16:11;101979.13;;;18.30;91.15
72414;BME280;60995;52.154;4.498;2023-06-22T03:18:27;101975.47;;;18.22;91.37
72414;BME280;60995;52.154;4.498;2023-06-22T03:20:43;101981.13;;;18.20;91.39
72414;BME280;60995;52.154;4.498;2023-06-22T03:22:59;101970.97;;;18.21;91.47
72414;BME280;60995;52.154;4.498;2023-06-22T03:25:16;101959.53;;;18.25;91.74
72414;BME280;60995;52.154;4.498;2023-06-22T03:27:32;101955.97;;;18.33;91.73
72414;BME280;60995;52.154;4.498;2023-06-22T03:29:49;101956.59;;;18.53;91.21
72414;BME280;60995;52.154;4.498;2023-06-22T03:32:05;101948.19;;;18.55;90.92
72414;BME280;60995;52.154;4.498;2023-06-22T03:34:22;101941.84;;;18.54;90.68
72414;BME280;60995;52.154;4.498;2023-06-22T03:36:38;101938.56;;;18.59;90.14
72414;BME280;60995;52.154;4.498;2023-06-22T03:38:55;101937.56;;;18.60;90.26
72414;BME280;60995;52.154;4.498;2023-06-22T03:41:11;101935.31;;;18.55;90.20
72414;BME280;60995;52.154;4.498;2023-06-22T03:43:28;101939.47;;;18.59;90.11
72414;BME280;60995;52.154;4.498;2023-06-22T03:45:44;101941.69;;;18.64;90.08
72414;BME280;60995;52.154;4.498;2023-06-22T03:48:03;101941.66;;;18.56;89.92
72414;BME280;60995;52.154;4.498;2023-06-22T03:50:19;101935.66;;;18.60;89.98
72414;BME280;60995;52.154;4.498;2023-06-22T03:52:36;101940.97;;;18.54;90.05
72414;BME280;60995;52.154;4.498;2023-06-22T03:54:52;101937.22;;;18.63;90.19
72414;BME280;60995;52.154;4.498;2023-06-22T03:57:08;101932.53;;;18.81;90.34
72414;BME280;60995;52.154;4.498;2023-06-22T03:59:25;101936.09;;;18.74;89.82
72414;BME280;60995;52.154;4.498;2023-06-22T04:01:41;101930.34;;;18.93;89.58
72414;BME280;60995;52.154;4.498;2023-06-22T04:03:57;101933.00;;;18.77;89.27
72414;BME280;60995;52.154;4.498;2023-06-22T04:06:14;101926.81;;;18.75;88.74
72414;BME280;60995;52.154;4.498;2023-06-22T04:08:30;101933.47;;;18.98;88.91
72414;BME280;60995;52.154;4.498;2023-06-22T04:10:46;101927.25;;;18.96;88.38
72414;BME280;60995;52.154;4.498;2023-06-22T04:13:02;101916.31;;;19.05;87.81
72414;BME280;60995;52.154;4.498;2023-06-22T04:15:19;101918.72;;;19.16;87.26
72414;BME280;60995;52.154;4.498;2023-06-22T04:17:35;101913.03;;;19.09;86.63
72414;BME280;60995;52.154;4.498;2023-06-22T04:19:51;101916.63;;;19.10;86.56
72414;BME280;60995;52.154;4.498;2023-06-22T04:22:07;101913.09;;;19.26;86.77
72414;BME280;60995;52.154;4.498;2023-06-22T04:24:24;101915.53;;;19.45;85.92
72414;BME280;60995;52.154;4.498;2023-06-22T04:26:40;101917.41;;;19.70;85.62
72414;BME280;60995;52.154;4.498;2023-06-22T04:29:01;101916.41;;;19.71;84.58
72414;BME280;60995;52.154;4.498;2023-06-22T04:31:21;101925.34;;;19.81;84.27
72414;BME280;60995;52.154;4.498;2023-06-22T04:33:37;101922.63;;;19.89;83.43
72414;BME280;60995;52.154;4.498;2023-06-22T04:35:56;101919.16;;;20.04;82.55
72414;BME280;60995;52.154;4.498;2023-06-22T04:38:13;101926.03;;;20.16;81.84
72414;BME280;60995;52.154;4.498;2023-06-22T04:40:29;101913.59;;;20.37;81.17
72414;BME280;60995;52.154;4.498;2023-06-22T04:42:45;101912.84;;;20.59;80.39
72414;BME280;60995;52.154;4.498;2023-06-22T04:45:08;101910.78;;;20.61;79.42
72414;BME280;60995;52.154;4.498;2023-06-22T04:47:26;101909.94;;;20.92;78.75
72414;BME280;60995;52.154;4.498;2023-06-22T04:49:42;101899.94;;;20.99;76.89
72414;BME280;60995;52.154;4.498;2023-06-22T04:52:00;101907.38;;;21.22;75.60
72414;BME280;60995;52.154;4.498;2023-06-22T04:54:17;101908.31;;;21.38;74.49
72414;BME280;60995;52.154;4.498;2023-06-22T04:56:34;101910.81;;;21.56;73.45
72414;BME280;60995;52.154;4.498;2023-06-22T04:58:50;101908.94;;;21.94;72.18
72414;BME280;60995;52.154;4.498;2023-06-22T05:01:07;101904.53;;;22.38;70.79
72414;BME280;60995;52.154;4.498;2023-06-22T05:03:25;101900.50;;;22.86;69.35
72414;BME280;60995;52.154;4.498;2023-06-22T05:05:42;101896.56;;;22.80;66.91
72414;BME280;60995;52.154;4.498;2023-06-22T05:08:00;101891.53;;;24.07;65.86
72414;BME280;60995;52.154;4.498;2023-06-22T05:10:17;101876.56;;;24.71;59.32
72414;BME280;60995;52.154;4.498;2023-06-22T05:12:33;101883.97;;;24.22;60.66
72414;BME280;60995;52.154;4.498;2023-06-22T05:14:50;101872.69;;;23.95;61.82
72414;BME280;60995;52.154;4.498;2023-06-22T05:17:06;101875.94;;;26.32;58.78
72414;BME280;60995;52.154;4.498;2023-06-22T05:19:29;101863.22;;;28.78;50.50
72414;BME280;60995;52.154;4.498;2023-06-22T05:21:49;101867.56;;;29.77;46.59
72414;BME280;60995;52.154;4.498;2023-06-22T05:24:05;101868.34;;;29.42;44.49
72414;BME280;60995;52.154;4.498;2023-06-22T05:26:22;101878.06;;;27.34;48.48
72414;BME280;60995;52.154;4.498;2023-06-22T05:28:38;101875.47;;;27.46;49.07
72414;BME280;60995;52.154;4.498;2023-06-22T05:30:54;101884.28;;;27.04;49.71
72414;BME280;60995;52.154;4.498;2023-06-22T05:33:10;101878.38;;;27.19;50.31
72414;BME280;60995;52.154;4.498;2023-06-22T05:35:27;101874.19;;;26.44;52.19
72414;BME280;60995;52.154;4.498;2023-06-22T05:37:43;101878.78;;;26.12;53.56
72414;BME280;60995;52.154;4.498;2023-06-22T05:39:59;101876.38;;;25.48;53.90
72414;BME280;60995;52.154;4.498;2023-06-22T05:42:15;101870.84;;;25.95;54.17
72414;BME280;60995;52.154;4.498;2023-06-22T05:44:32;101870.22;;;25.53;55.14
72414;BME280;60995;52.154;4.498;2023-06-22T05:46:49;101868.28;;;25.47;54.98
72414;BME280;60995;52.154;4.498;2023-06-22T05:49:05;101874.47;;;25.89;54.62
72414;BME280;60995;52.154;4.498;2023-06-22T05:51:22;101880.25;;;26.14;54.11
72414;BME280;60995;52.154;4.498;2023-06-22T05:53:38;101873.28;;;27.16;52.23
72414;BME280;60995;52.154;4.498;2023-06-22T05:55:54;101859.69;;;27.83;49.41
72414;BME280;60995;52.154;4.498;2023-06-22T05:58:10;101872.56;;;27.84;49.31
72414;BME280;60995;52.154;4.498;2023-06-22T06:00:26;101875.28;;;29.51;45.85
72414;BME280;60995;52.154;4.498;2023-06-22T06:02:43;101864.38;;;31.26;41.27
72414;BME280;60995;52.154;4.498;2023-06-22T06:04:59;101871.47;;;32.14;39.25
72414;BME280;60995;52.154;4.498;2023-06-22T06:07:15;101863.41;;;33.34;36.14
72414;BME280;60995;52.154;4.498;2023-06-22T06:09:32;101858.34;;;33.63;35.11
72414;BME280;60995;52.154;4.498;2023-06-22T06:11:48;101862.31;;;34.48;34.06
72414;BME280;60995;52.154;4.498;2023-06-22T06:14:04;101860.84;;;35.08;32.69
72414;BME280;60995;52.154;4.498;2023-06-22T06:16:22;101851.72;;;34.81;33.52
72414;BME280;60995;52.154;4.498;2023-06-22T06:18:38;101859.88;;;33.43;34.89
72414;BME280;60995;52.154;4.498;2023-06-22T06:20:55;101852.91;;;32.13;38.08
72414;BME280;60995;52.154;4.498;2023-06-22T06:23:11;101851.06;;;31.33;39.18
72414;BME280;60995;52.154;4.498;2023-06-22T06:25:27;101852.78;;;31.51;39.36
72414;BME280;60995;52.154;4.498;2023-06-22T06:27:44;101850.25;;;31.67;39.07
72414;BME280;60995;52.154;4.498;2023-06-22T06:30:04;101853.91;;;30.40;41.02
72414;BME280;60995;52.154;4.498;2023-06-22T06:32:21;101849.78;;;31.58;39.68
72414;BME280;60995;52.154;4.498;2023-06-22T06:34:37;101856.06;;;31.48;38.88
72414;BME280;60995;52.154;4.498;2023-06-22T06:36:54;101855.53;;;31.17;39.07
72414;BME280;60995;52.154;4.498;2023-06-22T06:39:10;101857.31;;;29.71;42.39
72414;BME280;60995;52.154;4.498;2023-06-22T06:41:26;101850.75;;;29.77;42.27
72414;BME280;60995;52.154;4.498;2023-06-22T06:43:43;101842.53;;;32.13;38.64
72414;BME280;60995;52.154;4.498;2023-06-22T06:45:59;101848.66;;;33.48;35.79
72414;BME280;60995;52.154;4.498;2023-06-22T06:48:15;101839.72;;;32.75;35.84
72414;BME280;60995;52.154;4.498;2023-06-22T06:50:31;101848.72;;;32.55;36.20
72414;BME280;60995;52.154;4.498;2023-06-22T06:52:48;101843.91;;;30.97;37.97
72414;BME280;60995;52.154;4.498;2023-06-22T06:55:06;101843.13;;;31.13;38.13
72414;BME280;60995;52.154;4.498;2023-06-22T06:57:27;101839.78;;;32.58;34.90
72414;BME280;60995;52.154;4.498;2023-06-22T06:59:46;101840.50;;;32.09;34.63
72414;BME280;60995;52.154;4.498;2023-06-22T07:02:02;101835.31;;;31.15;35.75
72414;BME280;60995;52.154;4.498;2023-06-22T07:04:19;101834.59;;;30.79;37.28
72414;BME280;60995;52.154;4.498;2023-06-22T07:06:35;101830.16;;;31.41;36.72
72414;BME280;60995;52.154;4.498;2023-06-22T07:08:51;101830.09;;;30.78;36.85
72414;BME280;60995;52.154;4.498;2023-06-22T07:11:08;101833.91;;;31.64;36.29
72414;BME280;60995;52.154;4.498;2023-06-22T07:13:24;101833.28;;;33.94;31.47
72414;BME280;60995;52.154;4.498;2023-06-22T07:15:40;101827.69;;;34.57;30.19
72414;BME280;60995;52.154;4.498;2023-06-22T07:17:56;101823.03;;;34.89;29.98
72414;BME280;60995;52.154;4.498;2023-06-22T07:20:13;101821.94;;;33.51;31.49
72414;BME280;60995;52.154;4.498;2023-06-22T07:22:29;101819.91;;;34.27;30.22
72414;BME280;60995;52.154;4.498;2023-06-22T07:24:46;101822.19;;;34.30;30.41
72414;BME280;60995;52.154;4.498;2023-06-22T07:27:02;101816.47;;;33.72;31.10
72414;BME280;60995;52.154;4.498;2023-06-22T07:29:21;101817.13;;;35.26;28.40
72414;BME280;60995;52.154;4.498;2023-06-22T07:31:37;101811.31;;;33.96;30.68
72414;BME280;60995;52.154;4.498;2023-06-22T07:33:55;101820.13;;;34.73;29.22
72414;BME280;60995;52.154;4.498;2023-06-22T07:36:12;101811.22;;;35.54;29.12
72414;BME280;60995;52.154;4.498;2023-06-22T07:38:28;101810.09;;;35.70;28.82
72414;BME280;60995;52.154;4.498;2023-06-22T07:40:45;101805.56;;;35.85;28.46
72414;BME280;60995;52.154;4.498;2023-06-22T07:43:02;101802.06;;;36.84;26.98
72414;BME280;60995;52.154;4.498;2023-06-22T07:45:19;101808.66;;;37.14;26.33
72414;BME280;60995;52.154;4.498;2023-06-22T07:47:35;101804.28;;;37.32;25.54
72414;BME280;60995;52.154;4.498;2023-06-22T07:49:52;101800.25;;;38.46;24.27
72414;BME280;60995;52.154;4.498;2023-06-22T07:52:10;101802.50;;;36.52;25.84
72414;BME280;60995;52.154;4.498;2023-06-22T07:54:27;101789.19;;;35.97;26.23
72414;BME280;60995;52.154;4.498;2023-06-22T07:56:43;101787.97;;;36.14;25.69
72414;BME280;60995;52.154;4.498;2023-06-22T07:59:00;101788.66;;;35.33;27.17
72414;BME280;60995;52.154;4.498;2023-06-22T08:01:17;101792.03;;;35.30;26.88
72414;BME280;60995;52.154;4.498;2023-06-22T08:03:36;101788.09;;;35.31;27.16
72414;BME280;60995;52.154;4.498;2023-06-22T08:05:53;101776.81;;;35.36;27.69
72414;BME280;60995;52.154;4.498;2023-06-22T08:08:09;101771.72;;;34.97;27.93
72414;BME280;60995;52.154;4.498;2023-06-22T08:10:26;101782.16;;;34.18;29.59
72414;BME280;60995;52.154;4.498;2023-06-22T08:12:42;101769.63;;;36.11;26.58
72414;BME280;60995;52.154;4.498;2023-06-22T08:14:59;101778.97;;;34.72;27.45
72414;BME280;60995;52.154;4.498;2023-06-22T08:17:15;101764.97;;;35.50;26.97
72414;BME280;60995;52.154;4.498;2023-06-22T08:19:31;101773.19;;;34.31;28.75
72414;BME280;60995;52.154;4.498;2023-06-22T08:21:48;101767.22;;;35.48;27.54
72414;BME280;60995;52.154;4.498;2023-06-22T08:24:04;101772.25;;;35.71;26.79
72414;BME280;60995;52.154;4.498;2023-06-22T08:26:21;101767.78;;;34.93;27.06
72414;BME280;60995;52.154;4.498;2023-06-22T08:28:37;101764.69;;;33.30;29.59
72414;BME280;60995;52.154;4.498;2023-06-22T08:30:54;101770.69;;;32.62;30.75
72414;BME280;60995;52.154;4.498;2023-06-22T08:33:11;101768.91;;;32.51;31.77
72414;BME280;60995;52.154;4.498;2023-06-22T08:35:28;101775.38;;;32.73;31.41
72414;BME280;60995;52.154;4.498;2023-06-22T08:37:45;101775.94;;;34.21;29.09
72414;BME280;60995;52.154;4.498;2023-06-22T08:40:09;101779.31;;;34.12;28.88
72414;BME280;60995;52.154;4.498;2023-06-22T08:42:26;101768.63;;;34.25;28.64
72414;BME280;60995;52.154;4.498;2023-06-22T08:44:43;101760.00;;;32.59;31.19
72414;BME280;60995;52.154;4.498;2023-06-22T08:46:59;101750.41;;;32.55;31.02
72414;BME280;60995;52.154;4.498;2023-06-22T08:49:15;101760.47;;;32.51;31.27
72414;BME280;60995;52.154;4.498;2023-06-22T08:51:31;101759.09;;;32.75;31.27
72414;BME280;60995;52.154;4.498;2023-06-22T08:53:48;101749.03;;;33.44;30.22
72414;BME280;60995;52.154;4.498;2023-06-22T08:56:04;101752.56;;;31.64;33.44
72414;BME280;60995;52.154;4.498;2023-06-22T08:58:20;101749.69;;;32.42;32.65
72414;BME280;60995;52.154;4.498;2023-06-22T09:00:37;101748.75;;;33.46;31.35
72414;BME280;60995;52.154;4.498;2023-06-22T09:02:53;101751.63;;;33.94;29.96
72414;BME280;60995;52.154;4.498;2023-06-22T09:05:13;101753.81;;;34.40;29.87
72414;BME280;60995;52.154;4.498;2023-06-22T09:07:29;101747.03;;;33.40;30.72
72414;BME280;60995;52.154;4.498;2023-06-22T09:09:46;101751.41;;;35.52;27.87
72414;BME280;60995;52.154;4.498;2023-06-22T09:12:02;101756.41;;;33.56;31.33
72414;BME280;60995;52.154;4.498;2023-06-22T09:14:19;101749.88;;;33.83;30.47
72414;BME280;60995;52.154;4.498;2023-06-22T09:16:35;101743.47;;;34.82;29.46
72414;BME280;60995;52.154;4.498;2023-06-22T09:18:51;101727.63;;;35.73;28.03
72414;BME280;60995;52.154;4.498;2023-06-22T09:21:08;101737.56;;;35.60;27.76
72414;BME280;60995;52.154;4.498;2023-06-22T09:23:24;101737.03;;;35.17;29.17
72414;BME280;60995;52.154;4.498;2023-06-22T09:25:40;101744.56;;;33.48;32.67
72414;BME280;60995;52.154;4.498;2023-06-22T09:27:57;101746.22;;;34.45;31.49
72414;BME280;60995;52.154;4.498;2023-06-22T09:30:13;101739.63;;;34.24;31.85
72414;BME280;60995;52.154;4.498;2023-06-22T09:32:29;101742.06;;;33.95;31.62
72414;BME280;60995;52.154;4.498;2023-06-22T09:34:46;101738.94;;;34.65;30.78
72414;BME280;60995;52.154;4.498;2023-06-22T09:37:02;101748.28;;;33.59;32.49
72414;BME280;60995;52.154;4.498;2023-06-22T09:39:19;101745.25;;;31.12;36.35
72414;BME280;60995;52.154;4.498;2023-06-22T09:41:35;101744.44;;;30.82;36.72
72414;BME280;60995;52.154;4.498;2023-06-22T09:43:51;101750.72;;;30.32;37.21
72414;BME280;60995;52.154;4.498;2023-06-22T09:46:07;101746.78;;;30.04;37.16
72414;BME280;60995;52.154;4.498;2023-06-22T09:48:25;101742.00;;;30.16;37.43
72414;BME280;60995;52.154;4.498;2023-06-22T09:50:41;101731.72;;;31.60;35.22
72414;BME280;60995;52.154;4.498;2023-06-22T09:52:57;101729.22;;;32.20;34.55
72414;BME280;60995;52.154;4.498;2023-06-22T09:55:14;101718.00;;;31.41;36.18
72414;BME280;60995;52.154;4.498;2023-06-22T09:57:31;101718.81;;;30.91;36.83
72414;BME280;60995;52.154;4.498;2023-06-22T09:59:48;101717.13;;;31.58;34.85
72414;BME280;60995;52.154;4.498;2023-06-22T10:02:05;101713.72;;;31.56;34.71
72414;BME280;60995;52.154;4.498;2023-06-22T10:04:23;101716.47;;;32.12;34.43
72414;BME280;60995;52.154;4.498;2023-06-22T10:06:40;101709.13;;;31.66;35.27
72414;BME280;60995;52.154;4.498;2023-06-22T10:08:56;101719.66;;;31.76;35.60
72414;BME280;60995;52.154;4.498;2023-06-22T10:11:13;101708.75;;;30.61;37.16
72414;BME280;60995;52.154;4.498;2023-06-22T10:13:29;101710.81;;;30.65;37.95
72414;BME280;60995;52.154;4.498;2023-06-22T10:15:45;101726.06;;;30.58;37.77
72414;BME280;60995;52.154;4.498;2023-06-22T10:18:07;101719.19;;;30.36;37.33
72414;BME280;60995;52.154;4.498;2023-06-22T10:20:23;101725.22;;;30.16;37.60
72414;BME280;60995;52.154;4.498;2023-06-22T10:22:42;101716.66;;;30.64;36.49
72414;BME280;60995;52.154;4.498;2023-06-22T10:24:59;101724.13;;;30.75;35.84
72414;BME280;60995;52.154;4.498;2023-06-22T10:27:16;101721.59;;;30.04;37.58
72414;BME280;60995;52.154;4.498;2023-06-22T10:29:32;101729.75;;;30.06;37.95
72414;BME280;60995;52.154;4.498;2023-06-22T10:31:48;101718.69;;;29.99;37.30
72414;BME280;60995;52.154;4.498;2023-06-22T10:34:05;101717.84;;;30.39;36.99
72414;BME280;60995;52.154;4.498;2023-06-22T10:36:21;101729.16;;;30.44;36.81
72414;BME280;60995;52.154;4.498;2023-06-22T10:38:38;101734.00;;;30.08;37.78
72414;BME280;60995;52.154;4.498;2023-06-22T10:40:54;101723.66;;;29.85;37.96
72414;BME280;60995;52.154;4.498;2023-06-22T10:43:11;101733.19;;;29.60;38.33
72414;BME280;60995;52.154;4.498;2023-06-22T10:45:27;101716.63;;;29.23;39.26
72414;BME280;60995;52.154;4.498;2023-06-22T10:47:43;101721.59;;;29.09;39.96
72414;BME280;60995;52.154;4.498;2023-06-22T10:50:01;101722.22;;;28.69;40.79
72414;BME280;60995;52.154;4.498;2023-06-22T10:52:17;101723.59;;;28.29;42.51
72414;BME280;60995;52.154;4.498;2023-06-22T10:54:35;101726.34;;;28.66;41.35
72414;BME280;60995;52.154;4.498;2023-06-22T10:56:52;101721.72;;;28.72;40.34
72414;BME280;60995;52.154;4.498;2023-06-22T10:59:08;101723.53;;;28.66;40.42
72414;BME280;60995;52.154;4.498;2023-06-22T11:01:24;101719.59;;;28.55;40.32
72414;BME280;60995;52.154;4.498;2023-06-22T11:03:41;101721.16;;;28.82;40.51
72414;BME280;60995;52.154;4.498;2023-06-22T11:05:57;101724.50;;;28.72;40.59
72414;BME280;60995;52.154;4.498;2023-06-22T11:08:13;101724.94;;;28.27;41.94
72414;BME280;60995;52.154;4.498;2023-06-22T11:10:30;101718.13;;;28.53;41.92
72414;BME280;60995;52.154;4.498;2023-06-22T11:12:46;101719.41;;;28.69;41.33
72414;BME280;60995;52.154;4.498;2023-06-22T11:15:03;101719.50;;;28.62;42.26
72414;BME280;60995;52.154;4.498;2023-06-22T11:17:20;101720.63;;;28.12;43.76
72414;BME280;60995;52.154;4.498;2023-06-22T11:19:36;101726.03;;;28.07;44.42
72414;BME280;60995;52.154;4.498;2023-06-22T11:21:52;101723.59;;;27.55;46.16
72414;BME280;60995;52.154;4.498;2023-06-22T11:24:09;101729.72;;;28.01;45.06
72414;BME280;60995;52.154;4.498;2023-06-22T11:26:25;101726.91;;;27.64;45.41
72414;BME280;60995;52.154;4.498;2023-06-22T11:28:45;101732.31;;;27.33;45.93
72414;BME280;60995;52.154;4.498;2023-06-22T11:31:02;101734.53;;;27.24;45.70
72414;BME280;60995;52.154;4.498;2023-06-22T11:33:19;101728.53;;;27.53;46.31
72414;BME280;60995;52.154;4.498;2023-06-22T11:35:35;101726.47;;;28.41;44.56
72414;BME280;60995;52.154;4.498;2023-06-22T11:37:51;101724.78;;;28.03;45.20
72414;BME280;60995;52.154;4.498;2023-06-22T11:40:08;101722.66;;;28.35;44.02
72414;BME280;60995;52.154;4.498;2023-06-22T11:42:25;101715.31;;;28.04;43.80
72414;BME280;60995;52.154;4.498;2023-06-22T11:44:42;101715.00;;;28.31;43.40
72414;BME280;60995;52.154;4.498;2023-06-22T11:46:59;101710.44;;;28.18;43.88
72414;BME280;60995;52.154;4.498;2023-06-22T11:49:16;101714.69;;;27.83;45.18
72414;BME280;60995;52.154;4.498;2023-06-22T11:51:33;101699.72;;;27.78;45.84
72414;BME280;60995;52.154;4.498;2023-06-22T11:53:49;101698.41;;;27.62;46.52
72414;BME280;60995;52.154;4.498;2023-06-22T11:56:05;101700.41;;;27.54;46.76
72414;BME280;60995;52.154;4.498;2023-06-22T11:58:22;101697.34;;;26.87;48.58
72414;BME280;60995;52.154;4.498;2023-06-22T12:00:38;101697.38;;;26.48;50.35